sensor_id;sensor_type;location;lat;lon;timestamp;temperature;humidity
18297;DHT22;18066;52.106;5.534;2023-01-28T00:00:16;4.50;99.90
18297;DHT22;18066;52.106;5.534;2023-01-28T00:02:43;4.50;99.90
18297;DHT22;18066;52.106;5.534;2023-01-28T00:05:10;4.50;99.90
18297;DHT22;18066;52.106;5.534;2023-01-28T00:07:37;4.60;99.90
18297;DHT22;18066;52.106;5.534;2023-01-28T00:10:05;4.60;99.90
18297;DHT22;18066;52.106;5.534;2023-01-28T00:12:32;4.70;99.90
18297;DHT22;18066;52.106;5.534;2023-01-28T00:14:59;4.80;99.90
18297;DHT22;18066;52.106;5.534;2023-01-28T00:17:27;4.80;99.90
18297;DHT22;18066;52.106;5.534;2023-01-28T00:19:55;4.80;99.90
18297;DHT22;18066;52.106;5.534;2023-01-28T00:22:21;4.70;99.90
18297;DHT22;18066;52.106;5.534;2023-01-28T00:24:48;4.60;99.90
18297;DHT22;18066;52.106;5.534;2023-01-28T00:27:15;4.70;99.90
18297;DHT22;18066;52.106;5.534;2023-01-28T00:29:42;4.60;99.90
18297;DHT22;18066;52.106;5.534;2023-01-28T00:32:09;4.50;99.90
18297;DHT22;18066;52.106;5.534;2023-01-28T00:34:38;4.60;99.90
18297;DHT22;18066;52.106;5.534;2023-01-28T00:37:04;4.50;99.90
18297;DHT22;18066;52.106;5.534;2023-01-28T00:39:31;4.60;99.90
18297;DHT22;18066;52.106;5.534;2023-01-28T00:41:58;4.70;99.90
18297;DHT22;18066;52.106;5.534;2023-01-28T00:44:25;4.80;99.90
18297;DHT22;18066;52.106;5.534;2023-01-28T00:46:52;4.80;99.90
18297;DHT22;18066;52.106;5.534;2023-01-28T00:49:19;4.90;99.90
18297;DHT22;18066;52.106;5.534;2023-01-28T00:51:48;5.10;99.90
18297;DHT22;18066;52.106;5.534;2023-01-28T00:54:15;5.00;99.90
18297;DHT22;18066;52.106;5.534;2023-01-28T00:56:42;5.10;99.90
18297;DHT22;18066;52.106;5.534;2023-01-28T00:59:09;5.30;99.90
18297;DHT22;18066;52.106;5.534;2023-01-28T01:01:36;5.40;99.90
18297;DHT22;18066;52.106;5.534;2023-01-28T01:04:03;5.40;99.90
18297;DHT22;18066;52.106;5.534;2023-01-28T01:06:32;5.20;99.90
18297;DHT22;18066;52.106;5.534;2023-01-28T01:09:01;5.10;99.90
18297;DHT22;18066;52.106;5.534;2023-01-28T01:11:28;5.10;99.90
18297;DHT22;18066;52.106;5.534;2023-01-28T01:13:57;5.00;99.90
18297;DHT22;18066;52.106;5.534;2023-01-28T01:16:25;5.00;99.90
18297;DHT22;18066;52.106;5.534;2023-01-28T01:18:53;5.00;99.90
18297;DHT22;18066;52.106;5.534;2023-01-28T01:21:22;5.10;99.90
18297;DHT22;18066;52.106;5.534;2023-01-28T01:23:50;5.20;99.90
18297;DHT22;18066;52.106;5.534;2023-01-28T01:26:19;5.10;99.90
18297;DHT22;18066;52.106;5.534;2023-01-28T01:28:46;5.10;99.90
18297;DHT22;18066;52.106;5.534;2023-01-28T01:31:14;5.20;99.90
18297;DHT22;18066;52.106;5.534;2023-01-28T01:33:43;5.20;99.90
18297;DHT22;18066;52.106;5.534;2023-01-28T01:36:12;5.30;99.90
18297;DHT22;18066;52.106;5.534;2023-01-28T01:38:39;5.40;99.90
18297;DHT22;18066;52.106;5.534;2023-01-28T01:41:19;5.40;99.90
18297;DHT22;18066;52.106;5.534;2023-01-28T01:43:50;5.50;99.90
18297;DHT22;18066;52.106;5.534;2023-01-28T01:46:21;5.50;99.90
18297;DHT22;18066;52.106;5.534;2023-01-28T01:48:50;5.60;99.90
18297;DHT22;18066;52.106;5.534;2023-01-28T01:51:20;5.60;99.90
18297;DHT22;18066;52.106;5.534;2023-01-28T01:53:51;5.70;99.90
18297;DHT22;18066;52.106;5.534;2023-01-28T01:56:22;5.80;99.90
18297;DHT22;18066;52.106;5.534;2023-01-28T01:58:53;5.80;99.90
18297;DHT22;18066;52.106;5.534;2023-01-28T02:01:24;5.80;99.90
18297;DHT22;18066;52.106;5.534;2023-01-28T02:03:54;5.80;99.90
18297;DHT22;18066;52.106;5.534;2023-01-28T02:06:23;5.80;99.90
18297;DHT22;18066;52.106;5.534;2023-01-28T02:08:53;5.80;99.90
18297;DHT22;18066;52.106;5.534;2023-01-28T02:11:20;5.80;99.90
18297;DHT22;18066;52.106;5.534;2023-01-28T02:13:52;5.80;99.90
18297;DHT22;18066;52.106;5.534;2023-01-28T02:16:20;5.80;99.90
18297;DHT22;18066;52.106;5.534;2023-01-28T02:18:47;5.80;99.90
18297;DHT22;18066;52.106;5.534;2023-01-28T02:24:56;5.80;99.90
18297;DHT22;18066;52.106;5.534;2023-01-28T02:27:36;5.80;99.90
18297;DHT22;18066;52.106;5.534;2023-01-28T02:30:10;5.70;99.90
18297;DHT22;18066;52.106;5.534;2023-01-28T02:32:45;5.70;99.90
18297;DHT22;18066;52.106;5.534;2023-01-28T02:35:23;5.60;99.90
18297;DHT22;18066;52.106;5.534;2023-01-28T02:37:56;5.60;99.90
18297;DHT22;18066;52.106;5.534;2023-01-28T02:40:28;5.60;99.90
18297;DHT22;18066;52.106;5.534;2023-01-28T02:42:55;5.60;99.90
18297;DHT22;18066;52.106;5.534;2023-01-28T02:45:25;5.60;99.90
18297;DHT22;18066;52.106;5.534;2023-01-28T02:48:14;5.60;99.90
18297;DHT22;18066;52.106;5.534;2023-01-28T02:50:48;5.50;99.90
18297;DHT22;18066;52.106;5.534;2023-01-28T02:53:24;5.30;99.90
18297;DHT22;18066;52.106;5.534;2023-01-28T02:56:17;5.20;99.90
18297;DHT22;18066;52.106;5.534;2023-01-28T02:58:49;5.00;99.90
18297;DHT22;18066;52.106;5.534;2023-01-28T03:01:23;4.80;99.90
18297;DHT22;18066;52.106;5.534;2023-01-28T03:03:57;4.80;99.90
18297;DHT22;18066;52.106;5.534;2023-01-28T03:06:29;4.60;99.90
18297;DHT22;18066;52.106;5.534;2023-01-28T03:09:02;4.60;99.90
18297;DHT22;18066;52.106;5.534;2023-01-28T03:11:52;4.60;99.90
18297;DHT22;18066;52.106;5.534;2023-01-28T03:14:39;4.70;99.90
18297;DHT22;18066;52.106;5.534;2023-01-28T03:17:29;4.70;99.90
18297;DHT22;18066;52.106;5.534;2023-01-28T03:20:16;4.80;99.90
18297;DHT22;18066;52.106;5.534;2023-01-28T03:23:02;4.70;99.90
18297;DHT22;18066;52.106;5.534;2023-01-28T03:25:53;4.60;99.90
18297;DHT22;18066;52.106;5.534;2023-01-28T03:28:39;4.60;99.90
18297;DHT22;18066;52.106;5.534;2023-01-28T03:31:25;4.60;99.90
18297;DHT22;18066;52.106;5.534;2023-01-28T03:34:11;4.50;99.90
18297;DHT22;18066;52.106;5.534;2023-01-28T03:36:56;4.50;99.90
18297;DHT22;18066;52.106;5.534;2023-01-28T03:39:25;4.50;99.90
18297;DHT22;18066;52.106;5.534;2023-01-28T03:41:57;4.60;99.90
18297;DHT22;18066;52.106;5.534;2023-01-28T03:44:25;4.60;99.90
18297;DHT22;18066;52.106;5.534;2023-01-28T03:47:11;4.70;99.90
18297;DHT22;18066;52.106;5.534;2023-01-28T03:49:40;4.80;99.90
18297;DHT22;18066;52.106;5.534;2023-01-28T03:52:07;4.80;99.90
18297;DHT22;18066;52.106;5.534;2023-01-28T03:54:34;4.70;99.90
18297;DHT22;18066;52.106;5.534;2023-01-28T03:57:01;4.50;99.90
18297;DHT22;18066;52.106;5.534;2023-01-28T03:59:30;4.40;99.90
18297;DHT22;18066;52.106;5.534;2023-01-28T04:01:57;4.30;99.90
18297;DHT22;18066;52.106;5.534;2023-01-28T04:04:24;4.20;99.90
18297;DHT22;18066;52.106;5.534;2023-01-28T04:06:53;4.10;99.90
18297;DHT22;18066;52.106;5.534;2023-01-28T04:09:21;4.10;99.90
18297;DHT22;18066;52.106;5.534;2023-01-28T04:11:48;4.20;99.90
18297;DHT22;18066;52.106;5.534;2023-01-28T04:14:16;4.30;99.90
18297;DHT22;18066;52.106;5.534;2023-01-28T04:16:43;4.50;99.90
18297;DHT22;18066;52.106;5.534;2023-01-28T04:19:11;4.50;99.90
18297;DHT22;18066;52.106;5.534;2023-01-28T04:21:38;4.70;99.90
18297;DHT22;18066;52.106;5.534;2023-01-28T04:24:07;4.70;99.90
18297;DHT22;18066;52.106;5.534;2023-01-28T04:26:34;4.70;99.90
18297;DHT22;18066;52.106;5.534;2023-01-28T04:29:00;4.60;99.90
18297;DHT22;18066;52.106;5.534;2023-01-28T04:31:27;4.60;99.90
18297;DHT22;18066;52.106;5.534;2023-01-28T04:33:54;4.60;99.90
18297;DHT22;18066;52.106;5.534;2023-01-28T04:36:21;4.60;99.90
18297;DHT22;18066;52.106;5.534;2023-01-28T04:38:48;4.50;99.90
18297;DHT22;18066;52.106;5.534;2023-01-28T04:41:16;4.40;99.90
18297;DHT22;18066;52.106;5.534;2023-01-28T04:43:43;4.60;99.90
18297;DHT22;18066;52.106;5.534;2023-01-28T04:46:10;4.20;99.90
18297;DHT22;18066;52.106;5.534;2023-01-28T04:48:37;4.10;99.90
18297;DHT22;18066;52.106;5.534;2023-01-28T04:51:04;4.10;99.90
18297;DHT22;18066;52.106;5.534;2023-01-28T04:53:32;4.20;99.90
18297;DHT22;18066;52.106;5.534;2023-01-28T04:55:59;4.30;99.90
18297;DHT22;18066;52.106;5.534;2023-01-28T04:58:27;4.30;99.90
18297;DHT22;18066;52.106;5.534;2023-01-28T05:00:54;4.30;99.90
18297;DHT22;18066;52.106;5.534;2023-01-28T05:03:22;4.30;99.90
18297;DHT22;18066;52.106;5.534;2023-01-28T05:05:49;4.10;99.90
18297;DHT22;18066;52.106;5.534;2023-01-28T05:08:16;4.10;99.90
18297;DHT22;18066;52.106;5.534;2023-01-28T05:10:43;4.10;99.90
18297;DHT22;18066;52.106;5.534;2023-01-28T05:13:10;4.20;99.90
18297;DHT22;18066;52.106;5.534;2023-01-28T05:15:38;4.20;99.90
18297;DHT22;18066;52.106;5.534;2023-01-28T05:18:05;4.40;99.90
18297;DHT22;18066;52.106;5.534;2023-01-28T05:20:32;4.40;99.90
18297;DHT22;18066;52.106;5.534;2023-01-28T05:22:59;4.40;99.90
18297;DHT22;18066;52.106;5.534;2023-01-28T05:25:26;4.30;99.90
18297;DHT22;18066;52.106;5.534;2023-01-28T05:27:53;4.30;99.90
18297;DHT22;18066;52.106;5.534;2023-01-28T05:30:20;4.30;99.90
18297;DHT22;18066;52.106;5.534;2023-01-28T05:32:49;4.50;99.90
18297;DHT22;18066;52.106;5.534;2023-01-28T05:35:19;4.50;99.90
18297;DHT22;18066;52.106;5.534;2023-01-28T05:37:46;4.60;99.90
18297;DHT22;18066;52.106;5.534;2023-01-28T05:40:13;4.60;99.90
18297;DHT22;18066;52.106;5.534;2023-01-28T05:42:40;4.40;99.90
18297;DHT22;18066;52.106;5.534;2023-01-28T05:45:08;4.30;99.90
18297;DHT22;18066;52.106;5.534;2023-01-28T05:47:35;4.30;99.90
18297;DHT22;18066;52.106;5.534;2023-01-28T05:50:04;4.30;99.90
18297;DHT22;18066;52.106;5.534;2023-01-28T05:52:31;4.30;99.90
18297;DHT22;18066;52.106;5.534;2023-01-28T05:54:58;4.40;99.90
18297;DHT22;18066;52.106;5.534;2023-01-28T05:57:25;4.50;99.90
18297;DHT22;18066;52.106;5.534;2023-01-28T05:59:52;4.40;99.90
18297;DHT22;18066;52.106;5.534;2023-01-28T06:02:19;4.40;99.90
18297;DHT22;18066;52.106;5.534;2023-01-28T06:04:46;4.30;99.90
18297;DHT22;18066;52.106;5.534;2023-01-28T06:07:14;4.30;99.90
18297;DHT22;18066;52.106;5.534;2023-01-28T06:09:44;4.10;99.90
18297;DHT22;18066;52.106;5.534;2023-01-28T06:12:11;4.10;99.90
18297;DHT22;18066;52.106;5.534;2023-01-28T06:14:38;4.20;99.90
18297;DHT22;18066;52.106;5.534;2023-01-28T06:17:05;4.30;99.90
18297;DHT22;18066;52.106;5.534;2023-01-28T06:19:32;4.20;99.90
18297;DHT22;18066;52.106;5.534;2023-01-28T06:21:59;4.10;99.90
18297;DHT22;18066;52.106;5.534;2023-01-28T06:24:27;4.10;99.90
18297;DHT22;18066;52.106;5.534;2023-01-28T06:26:54;4.30;99.90
18297;DHT22;18066;52.106;5.534;2023-01-28T06:29:21;4.50;99.90
18297;DHT22;18066;52.106;5.534;2023-01-28T06:31:48;4.50;99.90
18297;DHT22;18066;52.106;5.534;2023-01-28T06:34:15;4.30;99.90
18297;DHT22;18066;52.106;5.534;2023-01-28T06:36:42;4.30;99.90
18297;DHT22;18066;52.106;5.534;2023-01-28T06:39:09;4.40;99.90
18297;DHT22;18066;52.106;5.534;2023-01-28T06:41:37;4.40;99.90
18297;DHT22;18066;52.106;5.534;2023-01-28T06:44:04;4.50;99.90
18297;DHT22;18066;52.106;5.534;2023-01-28T06:46:31;4.50;99.90
18297;DHT22;18066;52.106;5.534;2023-01-28T06:48:58;4.50;99.90
18297;DHT22;18066;52.106;5.534;2023-01-28T06:51:25;4.30;99.90
18297;DHT22;18066;52.106;5.534;2023-01-28T06:53:52;4.30;99.90
18297;DHT22;18066;52.106;5.534;2023-01-28T06:56:18;4.30;99.90
18297;DHT22;18066;52.106;5.534;2023-01-28T06:58:47;4.50;99.90
18297;DHT22;18066;52.106;5.534;2023-01-28T07:01:14;4.60;99.90
18297;DHT22;18066;52.106;5.534;2023-01-28T07:03:40;4.20;99.90
18297;DHT22;18066;52.106;5.534;2023-01-28T07:06:07;4.10;99.90
18297;DHT22;18066;52.106;5.534;2023-01-28T07:08:34;4.20;99.90
18297;DHT22;18066;52.106;5.534;2023-01-28T07:11:02;4.30;99.90
18297;DHT22;18066;52.106;5.534;2023-01-28T07:13:29;4.50;99.90
18297;DHT22;18066;52.106;5.534;2023-01-28T07:15:57;4.40;99.90
18297;DHT22;18066;52.106;5.534;2023-01-28T07:18:24;4.50;99.90
18297;DHT22;18066;52.106;5.534;2023-01-28T07:20:51;4.50;99.90
18297;DHT22;18066;52.106;5.534;2023-01-28T07:23:18;4.40;99.90
18297;DHT22;18066;52.106;5.534;2023-01-28T07:25:45;4.30;99.90
18297;DHT22;18066;52.106;5.534;2023-01-28T07:28:12;4.30;99.90
18297;DHT22;18066;52.106;5.534;2023-01-28T07:30:38;4.30;99.90
18297;DHT22;18066;52.106;5.534;2023-01-28T07:33:07;4.20;99.90
18297;DHT22;18066;52.106;5.534;2023-01-28T07:35:33;4.20;99.90
18297;DHT22;18066;52.106;5.534;2023-01-28T07:38:00;4.30;99.90
18297;DHT22;18066;52.106;5.534;2023-01-28T07:40:28;4.40;99.90
18297;DHT22;18066;52.106;5.534;2023-01-28T07:42:55;4.40;99.90
18297;DHT22;18066;52.106;5.534;2023-01-28T07:45:22;4.40;99.90
18297;DHT22;18066;52.106;5.534;2023-01-28T07:47:53;4.40;99.90
18297;DHT22;18066;52.106;5.534;2023-01-28T07:50:22;4.50;99.90
18297;DHT22;18066;52.106;5.534;2023-01-28T07:52:49;4.30;99.90
18297;DHT22;18066;52.106;5.534;2023-01-28T07:55:16;4.20;99.90
18297;DHT22;18066;52.106;5.534;2023-01-28T07:57:51;3.80;99.90
18297;DHT22;18066;52.106;5.534;2023-01-28T08:00:18;3.80;99.90
18297;DHT22;18066;52.106;5.534;2023-01-28T08:02:47;3.80;99.90
18297;DHT22;18066;52.106;5.534;2023-01-28T08:05:15;3.80;99.90
18297;DHT22;18066;52.106;5.534;2023-01-28T08:07:44;3.90;99.90
18297;DHT22;18066;52.106;5.534;2023-01-28T08:10:13;3.80;99.90
18297;DHT22;18066;52.106;5.534;2023-01-28T08:12:40;3.80;99.90
18297;DHT22;18066;52.106;5.534;2023-01-28T08:15:07;3.80;99.90
18297;DHT22;18066;52.106;5.534;2023-01-28T08:17:34;4.00;99.90
18297;DHT22;18066;52.106;5.534;2023-01-28T08:20:01;4.10;99.90
18297;DHT22;18066;52.106;5.534;2023-01-28T08:22:28;4.20;99.90
18297;DHT22;18066;52.106;5.534;2023-01-28T08:24:56;4.30;99.90
18297;DHT22;18066;52.106;5.534;2023-01-28T08:27:23;4.40;99.90
18297;DHT22;18066;52.106;5.534;2023-01-28T08:29:50;4.40;99.90
18297;DHT22;18066;52.106;5.534;2023-01-28T08:32:17;4.50;99.90
18297;DHT22;18066;52.106;5.534;2023-01-28T08:34:43;4.70;99.90
18297;DHT22;18066;52.106;5.534;2023-01-28T08:37:10;4.70;99.90
18297;DHT22;18066;52.106;5.534;2023-01-28T08:39:37;4.80;99.90
18297;DHT22;18066;52.106;5.534;2023-01-28T08:42:06;4.90;99.90
18297;DHT22;18066;52.106;5.534;2023-01-28T08:44:33;5.00;99.90
18297;DHT22;18066;52.106;5.534;2023-01-28T08:47:00;5.10;99.90
18297;DHT22;18066;52.106;5.534;2023-01-28T08:49:27;5.10;99.90
18297;DHT22;18066;52.106;5.534;2023-01-28T08:51:53;5.20;99.90
18297;DHT22;18066;52.106;5.534;2023-01-28T08:54:21;5.30;99.90
18297;DHT22;18066;52.106;5.534;2023-01-28T08:56:48;5.30;99.90
18297;DHT22;18066;52.106;5.534;2023-01-28T08:59:17;5.40;99.90
18297;DHT22;18066;52.106;5.534;2023-01-28T09:01:44;5.50;99.90
18297;DHT22;18066;52.106;5.534;2023-01-28T09:04:11;5.50;99.90
18297;DHT22;18066;52.106;5.534;2023-01-28T09:06:38;5.40;99.90
18297;DHT22;18066;52.106;5.534;2023-01-28T09:09:05;5.50;99.90
18297;DHT22;18066;52.106;5.534;2023-01-28T09:11:31;5.60;99.90
18297;DHT22;18066;52.106;5.534;2023-01-28T09:13:58;5.60;99.90
18297;DHT22;18066;52.106;5.534;2023-01-28T09:16:27;5.60;99.90
18297;DHT22;18066;52.106;5.534;2023-01-28T09:18:54;5.60;99.90
18297;DHT22;18066;52.106;5.534;2023-01-28T09:21:20;5.60;99.90
18297;DHT22;18066;52.106;5.534;2023-01-28T09:23:47;5.70;99.90
18297;DHT22;18066;52.106;5.534;2023-01-28T09:26:14;5.70;99.90
18297;DHT22;18066;52.106;5.534;2023-01-28T09:28:41;5.80;99.90
18297;DHT22;18066;52.106;5.534;2023-01-28T09:31:10;5.80;99.90
18297;DHT22;18066;52.106;5.534;2023-01-28T09:33:39;5.80;99.90
18297;DHT22;18066;52.106;5.534;2023-01-28T09:36:07;5.80;99.90
18297;DHT22;18066;52.106;5.534;2023-01-28T09:38:35;5.90;99.90
18297;DHT22;18066;52.106;5.534;2023-01-28T09:41:17;5.80;99.90
18297;DHT22;18066;52.106;5.534;2023-01-28T09:44:04;5.70;99.90
18297;DHT22;18066;52.106;5.534;2023-01-28T09:46:33;5.70;99.90
18297;DHT22;18066;52.106;5.534;2023-01-28T09:49:04;5.70;99.90
18297;DHT22;18066;52.106;5.534;2023-01-28T09:51:39;5.70;99.90
18297;DHT22;18066;52.106;5.534;2023-01-28T09:54:17;5.90;99.90
18297;DHT22;18066;52.106;5.534;2023-01-28T09:56:53;5.90;99.90
18297;DHT22;18066;52.106;5.534;2023-01-28T09:59:23;6.00;99.90
18297;DHT22;18066;52.106;5.534;2023-01-28T10:01:55;6.10;99.90
18297;DHT22;18066;52.106;5.534;2023-01-28T10:04:36;6.20;99.90
18297;DHT22;18066;52.106;5.534;2023-01-28T10:07:19;6.10;99.90
18297;DHT22;18066;52.106;5.534;2023-01-28T10:09:54;6.00;99.90
18297;DHT22;18066;52.106;5.534;2023-01-28T10:12:33;6.00;99.90
18297;DHT22;18066;52.106;5.534;2023-01-28T10:15:19;5.90;99.90
18297;DHT22;18066;52.106;5.534;2023-01-28T10:17:51;5.90;99.90
18297;DHT22;18066;52.106;5.534;2023-01-28T10:20:23;5.90;99.90
18297;DHT22;18066;52.106;5.534;2023-01-28T10:22:58;5.80;99.90
18297;DHT22;18066;52.106;5.534;2023-01-28T10:25:29;5.70;99.90
18297;DHT22;18066;52.106;5.534;2023-01-28T10:27:57;5.90;99.90
18297;DHT22;18066;52.106;5.534;2023-01-28T10:30:29;5.90;99.90
18297;DHT22;18066;52.106;5.534;2023-01-28T10:33:00;6.00;99.90
18297;DHT22;18066;52.106;5.534;2023-01-28T10:35:32;6.00;99.90
18297;DHT22;18066;52.106;5.534;2023-01-28T10:38:03;6.00;99.90
18297;DHT22;18066;52.106;5.534;2023-01-28T10:40:33;6.00;99.90
18297;DHT22;18066;52.106;5.534;2023-01-28T10:43:00;6.00;99.90
18297;DHT22;18066;52.106;5.534;2023-01-28T10:45:29;6.00;99.90
18297;DHT22;18066;52.106;5.534;2023-01-28T10:48:01;6.10;99.90
18297;DHT22;18066;52.106;5.534;2023-01-28T10:50:30;6.10;99.90
18297;DHT22;18066;52.106;5.534;2023-01-28T10:53:01;6.20;99.90
18297;DHT22;18066;52.106;5.534;2023-01-28T10:55:30;6.10;99.90
18297;DHT22;18066;52.106;5.534;2023-01-28T10:58:01;6.00;99.90
18297;DHT22;18066;52.106;5.534;2023-01-28T11:00:33;5.90;99.90
18297;DHT22;18066;52.106;5.534;2023-01-28T11:03:01;5.80;99.90
18297;DHT22;18066;52.106;5.534;2023-01-28T11:05:29;5.70;99.90
18297;DHT22;18066;52.106;5.534;2023-01-28T11:08:04;5.70;99.90
18297;DHT22;18066;52.106;5.534;2023-01-28T11:10:34;5.70;99.90
18297;DHT22;18066;52.106;5.534;2023-01-28T11:13:03;5.70;99.90
18297;DHT22;18066;52.106;5.534;2023-01-28T11:15:31;5.70;99.90
18297;DHT22;18066;52.106;5.534;2023-01-28T11:18:00;5.60;99.90
18297;DHT22;18066;52.106;5.534;2023-01-28T11:20:35;5.70;99.90
18297;DHT22;18066;52.106;5.534;2023-01-28T11:23:03;5.70;99.90
18297;DHT22;18066;52.106;5.534;2023-01-28T11:25:32;5.80;99.90
18297;DHT22;18066;52.106;5.534;2023-01-28T11:28:01;5.90;99.90
18297;DHT22;18066;52.106;5.534;2023-01-28T11:30:31;5.90;99.90
18297;DHT22;18066;52.106;5.534;2023-01-28T11:33:03;6.00;99.90
18297;DHT22;18066;52.106;5.534;2023-01-28T11:35:33;6.00;99.90
18297;DHT22;18066;52.106;5.534;2023-01-28T11:38:00;6.10;99.90
18297;DHT22;18066;52.106;5.534;2023-01-28T11:40:28;6.00;99.90
18297;DHT22;18066;52.106;5.534;2023-01-28T11:42:55;5.90;99.90
18297;DHT22;18066;52.106;5.534;2023-01-28T11:45:31;5.90;99.90
18297;DHT22;18066;52.106;5.534;2023-01-28T11:48:24;5.90;99.90
18297;DHT22;18066;52.106;5.534;2023-01-28T11:50:59;5.80;99.90
18297;DHT22;18066;52.106;5.534;2023-01-28T11:53:40;5.80;99.90
18297;DHT22;18066;52.106;5.534;2023-01-28T11:56:26;5.80;99.90
18297;DHT22;18066;52.106;5.534;2023-01-28T11:59:04;5.70;99.90
18297;DHT22;18066;52.106;5.534;2023-01-28T12:01:43;5.70;99.90
18297;DHT22;18066;52.106;5.534;2023-01-28T12:04:24;5.50;99.90
18297;DHT22;18066;52.106;5.534;2023-01-28T12:07:15;5.40;99.90
18297;DHT22;18066;52.106;5.534;2023-01-28T12:09:53;5.50;99.90
18297;DHT22;18066;52.106;5.534;2023-01-28T12:12:45;5.60;99.90
18297;DHT22;18066;52.106;5.534;2023-01-28T12:15:31;5.60;99.90
18297;DHT22;18066;52.106;5.534;2023-01-28T12:18:17;5.70;99.90
18297;DHT22;18066;52.106;5.534;2023-01-28T12:20:51;5.80;99.90
18297;DHT22;18066;52.106;5.534;2023-01-28T12:23:34;5.90;99.90
18297;DHT22;18066;52.106;5.534;2023-01-28T12:26:09;5.80;99.90
18297;DHT22;18066;52.106;5.534;2023-01-28T12:28:51;5.80;99.90
18297;DHT22;18066;52.106;5.534;2023-01-28T12:37:25;6.00;99.90
18297;DHT22;18066;52.106;5.534;2023-01-28T12:40:05;5.90;99.90
18297;DHT22;18066;52.106;5.534;2023-01-28T12:42:37;5.80;99.90
18297;DHT22;18066;52.106;5.534;2023-01-28T12:45:14;5.80;99.90
18297;DHT22;18066;52.106;5.534;2023-01-28T12:47:46;5.90;99.90
18297;DHT22;18066;52.106;5.534;2023-01-28T12:50:17;5.90;99.90
18297;DHT22;18066;52.106;5.534;2023-01-28T12:52:48;5.80;99.90
18297;DHT22;18066;52.106;5.534;2023-01-28T12:55:21;5.90;99.90
18297;DHT22;18066;52.106;5.534;2023-01-28T12:57:56;6.00;99.90
18297;DHT22;18066;52.106;5.534;2023-01-28T13:00:27;6.10;99.90
18297;DHT22;18066;52.106;5.534;2023-01-28T13:03:01;6.10;99.90
18297;DHT22;18066;52.106;5.534;2023-01-28T13:05:34;6.10;99.90
18297;DHT22;18066;52.106;5.534;2023-01-28T13:08:07;6.20;99.90
18297;DHT22;18066;52.106;5.534;2023-01-28T13:10:40;6.30;99.90
18297;DHT22;18066;52.106;5.534;2023-01-28T13:13:14;6.30;99.90
18297;DHT22;18066;52.106;5.534;2023-01-28T13:15:43;6.40;99.90
18297;DHT22;18066;52.106;5.534;2023-01-28T13:18:33;6.30;99.90
18297;DHT22;18066;52.106;5.534;2023-01-28T13:21:00;6.40;99.90
18297;DHT22;18066;52.106;5.534;2023-01-28T13:23:37;6.40;99.90
18297;DHT22;18066;52.106;5.534;2023-01-28T13:26:27;6.50;99.90
18297;DHT22;18066;52.106;5.534;2023-01-28T13:29:08;6.50;99.90
18297;DHT22;18066;52.106;5.534;2023-01-28T13:31:39;6.50;99.90
18297;DHT22;18066;52.106;5.534;2023-01-28T13:34:07;6.50;99.90
18297;DHT22;18066;52.106;5.534;2023-01-28T13:36:37;6.40;99.90
18297;DHT22;18066;52.106;5.534;2023-01-28T13:39:14;6.30;99.90
18297;DHT22;18066;52.106;5.534;2023-01-28T13:41:47;6.30;99.90
18297;DHT22;18066;52.106;5.534;2023-01-28T13:44:26;6.20;99.90
18297;DHT22;18066;52.106;5.534;2023-01-28T13:46:55;6.30;99.90
18297;DHT22;18066;52.106;5.534;2023-01-28T13:49:26;6.30;99.90
18297;DHT22;18066;52.106;5.534;2023-01-28T13:52:00;6.40;99.90
18297;DHT22;18066;52.106;5.534;2023-01-28T13:54:32;6.40;99.90
18297;DHT22;18066;52.106;5.534;2023-01-28T13:57:22;6.50;99.90
18297;DHT22;18066;52.106;5.534;2023-01-28T14:00:04;6.50;99.90
18297;DHT22;18066;52.106;5.534;2023-01-28T14:02:50;6.40;99.90
18297;DHT22;18066;52.106;5.534;2023-01-28T14:17:37;6.30;99.90
18297;DHT22;18066;52.106;5.534;2023-01-28T14:20:15;6.40;99.90
18297;DHT22;18066;52.106;5.534;2023-01-28T14:22:43;6.40;99.90
18297;DHT22;18066;52.106;5.534;2023-01-28T14:25:12;6.50;99.90
18297;DHT22;18066;52.106;5.534;2023-01-28T14:27:43;6.50;99.90
18297;DHT22;18066;52.106;5.534;2023-01-28T14:30:17;6.50;99.90
18297;DHT22;18066;52.106;5.534;2023-01-28T14:32:46;6.50;99.90
18297;DHT22;18066;52.106;5.534;2023-01-28T14:35:18;6.50;99.90
18297;DHT22;18066;52.106;5.534;2023-01-28T14:37:46;6.60;99.90
18297;DHT22;18066;52.106;5.534;2023-01-28T14:40:15;6.40;99.90
18297;DHT22;18066;52.106;5.534;2023-01-28T14:42:44;6.40;99.90
18297;DHT22;18066;52.106;5.534;2023-01-28T14:45:31;6.50;99.90
18297;DHT22;18066;52.106;5.534;2023-01-28T14:48:16;6.50;99.90
18297;DHT22;18066;52.106;5.534;2023-01-28T14:50:59;6.30;99.90
18297;DHT22;18066;52.106;5.534;2023-01-28T14:53:56;6.30;99.90
18297;DHT22;18066;52.106;5.534;2023-01-28T14:56:36;6.20;99.90
18297;DHT22;18066;52.106;5.534;2023-01-28T14:59:13;6.20;99.90
18297;DHT22;18066;52.106;5.534;2023-01-28T15:01:45;6.30;99.90
18297;DHT22;18066;52.106;5.534;2023-01-28T15:04:26;6.30;99.90
18297;DHT22;18066;52.106;5.534;2023-01-28T15:06:53;6.50;99.90
18297;DHT22;18066;52.106;5.534;2023-01-28T15:09:21;6.60;99.90
18297;DHT22;18066;52.106;5.534;2023-01-28T15:11:51;6.60;99.90
18297;DHT22;18066;52.106;5.534;2023-01-28T15:14:24;6.70;99.90
18297;DHT22;18066;52.106;5.534;2023-01-28T15:16:53;6.70;99.90
18297;DHT22;18066;52.106;5.534;2023-01-28T15:19:25;6.70;99.90
18297;DHT22;18066;52.106;5.534;2023-01-28T15:21:55;6.70;99.90
18297;DHT22;18066;52.106;5.534;2023-01-28T15:24:22;6.70;99.90
18297;DHT22;18066;52.106;5.534;2023-01-28T15:26:49;6.70;99.90
18297;DHT22;18066;52.106;5.534;2023-01-28T15:29:22;6.70;99.90
18297;DHT22;18066;52.106;5.534;2023-01-28T15:31:50;6.60;99.90
18297;DHT22;18066;52.106;5.534;2023-01-28T15:34:19;6.50;99.90
18297;DHT22;18066;52.106;5.534;2023-01-28T15:36:46;6.50;99.90
18297;DHT22;18066;52.106;5.534;2023-01-28T15:39:15;6.40;99.90
18297;DHT22;18066;52.106;5.534;2023-01-28T15:41:44;6.30;99.90
18297;DHT22;18066;52.106;5.534;2023-01-28T15:44:17;6.30;99.90
18297;DHT22;18066;52.106;5.534;2023-01-28T15:46:44;6.20;99.90
18297;DHT22;18066;52.106;5.534;2023-01-28T15:49:17;6.10;99.90
18297;DHT22;18066;52.106;5.534;2023-01-28T15:51:48;6.10;99.90
18297;DHT22;18066;52.106;5.534;2023-01-28T15:54:16;6.00;99.90
18297;DHT22;18066;52.106;5.534;2023-01-28T15:56:43;5.90;99.90
18297;DHT22;18066;52.106;5.534;2023-01-28T15:59:20;5.80;99.90
18297;DHT22;18066;52.106;5.534;2023-01-28T16:01:47;5.80;99.90
18297;DHT22;18066;52.106;5.534;2023-01-28T16:04:26;5.70;99.90
18297;DHT22;18066;52.106;5.534;2023-01-28T16:06:54;5.90;99.90
18297;DHT22;18066;52.106;5.534;2023-01-28T16:09:24;5.60;99.90
18297;DHT22;18066;52.106;5.534;2023-01-28T16:11:52;5.60;99.90
18297;DHT22;18066;52.106;5.534;2023-01-28T16:14:28;5.50;99.90
18297;DHT22;18066;52.106;5.534;2023-01-28T16:16:56;5.50;99.90
18297;DHT22;18066;52.106;5.534;2023-01-28T16:19:34;5.50;99.90
18297;DHT22;18066;52.106;5.534;2023-01-28T16:22:03;5.50;99.90
18297;DHT22;18066;52.106;5.534;2023-01-28T16:24:32;5.40;99.90
18297;DHT22;18066;52.106;5.534;2023-01-28T16:27:02;5.30;99.90
18297;DHT22;18066;52.106;5.534;2023-01-28T16:29:30;5.30;99.90